Time;durP1;ratioP1;P1;durP2;ratioP2;P2;SDS_P1;SDS_P2;PMS_P1;PMS_P2;Temp;Humidity;BMP_temperature;BMP_pressure;BME280_temperature;BME280_humidity;BME280_pressure;Samples;Min_cycle;Max_cycle;Signal;HPM_P1;HPM_P2
2022/08/01 00:00:43;;;;;;;5.13;3.42;;;21.10;99.90;;;;;;4050895;29;20041;-67
2022/08/01 00:02:43;;;;;;;5.78;3.50;;;21.10;99.90;;;;;;4047839;29;20036;-68
2022/08/01 00:04:44;;;;;;;5.00;3.17;;;21.10;99.90;;;;;;4048484;29;20067;-68
2022/08/01 00:06:44;;;;;;;5.50;3.20;;;21.10;99.90;;;;;;4052994;29;20487;-67
2022/08/01 00:08:45;;;;;;;4.22;2.92;;;21.10;99.90;;;;;;4055819;29;20043;-67
2022/08/01 00:10:45;;;;;;;3.45;2.70;;;21.10;99.90;;;;;;4053129;29;20040;-67
2022/08/01 00:12:46;;;;;;;7.55;3.30;;;21.10;99.90;;;;;;4055749;29;20032;-68
2022/08/01 00:14:47;;;;;;;5.40;3.55;;;21.10;99.90;;;;;;4056452;29;20033;-67
2022/08/01 00:16:47;;;;;;;4.28;3.47;;;21.10;99.90;;;;;;4055204;29;20040;-67
2022/08/01 00:18:49;;;;;;;4.32;3.00;;;21.00;99.90;;;;;;4055854;29;20032;-67
2022/08/01 00:20:50;;;;;;;4.13;3.10;;;21.00;99.90;;;;;;4049728;29;20059;-67
2022/08/01 00:22:50;;;;;;;4.65;3.60;;;21.10;99.90;;;;;;4056493;29;25477;-68
2022/08/01 00:24:51;;;;;;;5.20;3.50;;;21.00;99.90;;;;;;4064981;29;20466;-68
2022/08/01 00:26:52;;;;;;;5.72;3.10;;;21.00;99.90;;;;;;4068077;29;20399;-67
2022/08/01 00:28:52;;;;;;;4.35;3.05;;;21.00;99.90;;;;;;4068713;29;20442;-68
2022/08/01 00:30:53;;;;;;;4.85;3.92;;;21.00;99.90;;;;;;4065067;29;20035;-67
2022/08/01 00:32:53;;;;;;;5.10;3.78;;;21.00;99.90;;;;;;4069704;29;22306;-67
2022/08/01 00:34:55;;;;;;;5.80;3.65;;;21.00;99.90;;;;;;4067085;29;20044;-67
2022/08/01 00:36:55;;;;;;;3.35;2.97;;;21.00;99.90;;;;;;4067136;29;20032;-68
2022/08/01 00:38:56;;;;;;;5.18;3.88;;;21.00;99.90;;;;;;4068481;29;20055;-67
2022/08/01 00:40:57;;;;;;;6.07;4.10;;;21.00;99.90;;;;;;4068328;29;20114;-67
2022/08/01 00:42:57;;;;;;;4.00;3.10;;;21.00;99.90;;;;;;4060135;29;20048;-67
2022/08/01 00:44:58;;;;;;;4.40;3.55;;;21.00;99.90;;;;;;4054141;29;20471;-67
2022/08/01 00:46:59;;;;;;;3.65;3.33;;;21.00;99.90;;;;;;4058800;29;20052;-68
2022/08/01 00:49:00;;;;;;;4.13;3.60;;;21.00;99.90;;;;;;4054407;29;20403;-68
2022/08/01 00:51:03;;;;;;;5.90;3.15;;;21.10;99.90;;;;;;4051778;29;20040;-68
2022/08/01 00:53:04;;;;;;;;;;;21.10;99.90;;;;;;4066463;29;20035;-68
2022/08/01 00:55:05;;;;;;;4.82;3.30;;;21.10;99.90;;;;;;4070301;29;20296;-68
2022/08/01 00:57:06;;;;;;;7.07;3.60;;;21.10;99.90;;;;;;4067582;29;20066;-67
2022/08/01 00:59:07;;;;;;;4.05;3.10;;;21.00;99.90;;;;;;4070880;29;20035;-68
2022/08/01 01:01:08;;;;;;;4.70;3.40;;;21.10;99.90;;;;;;4068920;29;20038;-68
2022/08/01 01:03:08;;;;;;;3.05;2.75;;;21.10;99.90;;;;;;4071770;29;20395;-67
2022/08/01 01:05:09;;;;;;;4.20;3.13;;;21.10;99.90;;;;;;4068297;29;20047;-68
2022/08/01 01:07:20;;;;;;;5.15;3.33;;;21.10;99.90;;;;;;4071566;29;20042;-68
2022/08/01 01:09:49;;;;;;;6.65;3.50;;;21.10;99.90;;;;;;4066961;29;20036;-67
2022/08/01 01:12:11;;;;;;;5.63;3.88;;;21.10;99.90;;;;;;4070578;29;20032;-67
2022/08/01 01:14:23;;;;;;;5.97;3.65;;;21.00;99.90;;;;;;4060229;29;20436;-68
2022/08/01 01:16:25;;;;;;;6.60;3.65;;;21.00;99.90;;;;;;4055197;29;20043;-68
2022/08/01 01:18:40;;;;;;;6.28;3.85;;;21.00;99.90;;;;;;4054790;29;20455;-68
2022/08/01 01:20:44;;;;;;;6.40;4.32;;;21.00;99.90;;;;;;4054758;29;20036;-67
2022/08/01 01:23:26;;;;;;;7.60;4.50;;;21.00;99.90;;;;;;4055362;29;20554;-67
2022/08/01 01:25:39;;;;;;;4.85;3.50;;;21.00;99.90;;;;;;4069931;29;20088;-68
2022/08/01 01:27:51;;;;;;;5.38;3.83;;;21.00;99.90;;;;;;4056689;29;20059;-68
2022/08/01 01:29:55;;;;;;;8.55;4.30;;;21.00;99.90;;;;;;4056994;29;20675;-68
2022/08/01 01:32:03;;;;;;;5.38;4.05;;;21.00;99.90;;;;;;4058415;29;20048;-68
2022/08/01 01:34:05;;;;;;;8.40;4.60;;;21.00;99.90;;;;;;4054675;29;20085;-68
2022/08/01 01:36:09;;;;;;;5.90;3.80;;;21.00;99.90;;;;;;4055718;29;20510;-67
2022/08/01 01:38:31;;;;;;;5.03;3.70;;;20.90;99.90;;;;;;4072256;29;20051;-67
2022/08/01 01:40:33;;;;;;;8.05;4.55;;;21.00;99.90;;;;;;4055031;29;20044;-68
2022/08/01 01:42:35;;;;;;;5.17;4.27;;;20.90;99.90;;;;;;4058657;29;20384;-68
2022/08/01 01:44:37;;;;;;;6.15;4.03;;;20.90;99.90;;;;;;4076851;29;20051;-68
2022/08/01 01:46:39;;;;;;;5.78;3.95;;;20.90;99.90;;;;;;4056789;29;20048;-67
2022/08/01 01:48:43;;;;;;;6.40;3.92;;;20.90;99.90;;;;;;4057825;29;20071;-68
2022/08/01 01:50:46;;;;;;;6.80;4.18;;;20.90;99.90;;;;;;4054252;29;20561;-67
2022/08/01 01:52:49;;;;;;;6.50;4.35;;;20.90;99.90;;;;;;4059364;29;20074;-68
2022/08/01 01:54:52;;;;;;;5.47;4.50;;;20.90;99.90;;;;;;4058341;29;20044;-68
2022/08/01 01:56:55;;;;;;;7.75;4.68;;;21.00;99.90;;;;;;4059099;29;20051;-68
2022/08/01 01:59:00;;;;;;;5.25;4.47;;;21.00;99.90;;;;;;4059017;29;20036;-67
2022/08/01 02:01:03;;;;;;;8.07;4.85;;;20.90;99.90;;;;;;4053117;29;20060;-67
2022/08/01 02:03:04;;;;;;;;;;;20.90;99.90;;;;;;4058364;29;20479;-68
2022/08/01 02:05:08;;;;;;;6.53;5.18;;;20.90;99.90;;;;;;4057267;29;20373;-68
2022/08/01 02:07:12;;;;;;;12.07;5.60;;;20.90;99.90;;;;;;4056573;29;20594;-67
2022/08/01 02:09:18;;;;;;;9.93;5.90;;;20.90;99.90;;;;;;4059719;29;20067;-68
2022/08/01 02:14:18;;;;;;;6.57;4.25;;;20.90;99.90;;;;;;4052261;29;20040;-68
2022/08/01 02:16:20;;;;;;;8.23;4.88;;;20.90;99.90;;;;;;4051056;29;20029;-67
2022/08/01 02:18:21;;;;;;;;;;;21.00;99.90;;;;;;4033729;29;20036;-68
2022/08/01 02:20:22;;;;;;;8.38;4.90;;;21.00;99.90;;;;;;4049450;29;20289;-68
2022/08/01 02:22:28;;;;;;;7.22;4.75;;;21.00;99.90;;;;;;4050619;29;20037;-68
2022/08/01 02:24:37;;;;;;;7.63;5.18;;;21.00;99.90;;;;;;4051084;29;20096;-67
2022/08/01 02:26:41;;;;;;;7.20;5.13;;;21.00;99.90;;;;;;4063687;29;20048;-68
2022/08/01 02:28:54;;;;;;;7.10;5.22;;;21.00;99.90;;;;;;4065901;29;20032;-67
2022/08/01 02:31:08;;;;;;;6.35;4.97;;;21.10;99.90;;;;;;4064173;29;20028;-67
2022/08/01 02:33:20;;;;;;;5.70;4.28;;;21.00;99.90;;;;;;4065872;29;20483;-68
2022/08/01 02:35:27;;;;;;;8.18;5.32;;;21.10;99.90;;;;;;4064228;29;20431;-68
2022/08/01 02:37:31;;;;;;;12.73;6.15;;;21.10;99.90;;;;;;4051148;29;20452;-68
2022/08/01 02:39:32;;;;;;;9.93;5.32;;;21.00;99.90;;;;;;4050191;29;20032;-67
2022/08/01 02:41:35;;;;;;;8.20;5.70;;;21.10;99.90;;;;;;4049229;29;20063;-68
2022/08/01 02:43:45;;;;;;;9.85;6.20;;;21.10;99.90;;;;;;4063310;29;20068;-68
2022/08/01 02:45:51;;;;;;;10.55;6.60;;;21.00;99.90;;;;;;4066839;29;20064;-68
2022/08/01 02:47:57;;;;;;;9.68;6.47;;;21.00;99.90;;;;;;4058095;29;20647;-68
2022/08/01 02:50:00;;;;;;;9.80;6.10;;;21.00;99.90;;;;;;4049448;29;20041;-68
2022/08/01 02:52:13;;;;;;;9.13;6.30;;;21.00;99.90;;;;;;4049132;29;20036;-67
2022/08/01 02:54:14;;;;;;;;;;;21.00;99.90;;;;;;4046899;29;20084;-67
2022/08/01 02:56:17;;;;;;;12.18;7.38;;;21.00;99.90;;;;;;4049948;29;19919;-67
2022/08/01 02:58:19;;;;;;;9.98;6.85;;;21.00;99.90;;;;;;4050180;29;20037;-68
2022/08/01 03:00:20;;;;;;;;;;;21.00;99.90;;;;;;4051722;29;20396;-68
2022/08/01 03:02:23;;;;;;;7.38;5.75;;;21.00;99.90;;;;;;4050277;29;19911;-68
2022/08/01 03:04:25;;;;;;;9.68;6.53;;;21.00;99.90;;;;;;4049197;29;20032;-68
2022/08/01 03:06:26;;;;;;;8.70;5.90;;;21.00;99.90;;;;;;4049392;29;20044;-67
2022/08/01 03:08:30;;;;;;;8.27;5.95;;;21.00;99.90;;;;;;4049875;29;20057;-67
2022/08/01 03:10:32;;;;;;;6.80;5.95;;;21.10;99.90;;;;;;4053744;29;20092;-68
2022/08/01 03:12:38;;;;;;;9.75;6.85;;;21.10;99.90;;;;;;4051798;29;20116;-68
2022/08/01 03:14:41;;;;;;;8.35;6.18;;;21.10;99.90;;;;;;4065133;29;20036;-67
2022/08/01 03:16:44;;;;;;;9.13;6.20;;;21.10;99.90;;;;;;4065236;29;20391;-67
2022/08/01 03:18:46;;;;;;;10.88;6.32;;;21.10;99.90;;;;;;4065240;29;20384;-68
2022/08/01 03:20:47;;;;;;;11.10;6.27;;;21.10;99.90;;;;;;4059275;29;20043;-67
2022/08/01 03:22:51;;;;;;;16.98;9.25;;;21.10;99.90;;;;;;4074006;29;20582;-67
2022/08/01 03:24:53;;;;;;;9.18;6.47;;;21.10;99.90;;;;;;4062487;29;25710;-68
2022/08/01 03:26:57;;;;;;;6.90;5.40;;;21.10;99.90;;;;;;4049532;29;20044;-67
2022/08/01 03:29:06;;;;;;;6.22;4.85;;;21.10;99.90;;;;;;4050095;29;20052;-68
2022/08/01 03:31:06;;;;;;;9.88;6.88;;;21.10;99.90;;;;;;4047805;29;20092;-68
2022/08/01 03:33:07;;;;;;;8.15;5.85;;;21.10;99.90;;;;;;4049965;29;20045;-68
2022/08/01 03:35:08;;;;;;;10.43;7.00;;;21.10;99.90;;;;;;4048772;29;20044;-68
2022/08/01 03:37:15;;;;;;;10.07;6.45;;;21.10;99.90;;;;;;4049833;29;20055;-67
2022/08/01 03:39:18;;;;;;;7.85;6.10;;;21.00;99.90;;;;;;4049711;29;20037;-67
2022/08/01 03:41:21;;;;;;;9.52;6.50;;;21.10;99.90;;;;;;4048590;29;20042;-67
2022/08/01 03:43:42;;;;;;;;;;;21.00;99.90;;;;;;4050055;29;20054;-68
2022/08/01 03:45:47;;;;;;;9.93;6.50;;;21.00;99.90;;;;;;4047793;29;19915;-67
2022/08/01 03:47:52;;;;;;;9.15;7.22;;;21.00;99.90;;;;;;4049293;29;20694;-67
2022/08/01 03:49:56;;;;;;;8.95;6.82;;;21.00;99.90;;;;;;4052599;29;20067;-68
2022/08/01 03:51:58;;;;;;;8.25;6.07;;;21.00;99.90;;;;;;4050224;29;20040;-68
2022/08/01 03:54:01;;;;;;;8.85;6.03;;;21.00;99.90;;;;;;4048563;29;20037;-68
2022/08/01 03:56:08;;;;;;;;;;;21.00;99.90;;;;;;4049440;29;20115;-68
2022/08/01 03:58:10;;;;;;;8.10;6.20;;;21.00;99.90;;;;;;4049092;29;20306;-68
2022/08/01 04:00:11;;;;;;;7.75;5.70;;;21.00;99.90;;;;;;4053016;29;20516;-68
2022/08/01 04:02:16;;;;;;;5.80;4.78;;;21.00;99.90;;;;;;4064592;29;20118;-68
2022/08/01 04:04:17;;;;;;;7.13;6.00;;;21.00;99.90;;;;;;4059599;29;20119;-68
2022/08/01 04:06:18;;;;;;;8.63;5.55;;;21.10;99.90;;;;;;4061338;29;20071;-68
2022/08/01 04:08:18;;;;;;;6.93;5.65;;;21.10;99.90;;;;;;4062708;29;20525;-68
2022/08/01 04:10:19;;;;;;;6.70;5.30;;;21.10;99.90;;;;;;4061687;29;20039;-68
2022/08/01 04:12:20;;;;;;;7.13;5.53;;;21.10;99.90;;;;;;4064140;29;20534;-68
2022/08/01 04:14:21;;;;;;;8.65;5.82;;;21.10;99.90;;;;;;4066208;29;20486;-68
2022/08/01 04:16:22;;;;;;;7.38;6.20;;;21.20;99.90;;;;;;4062566;29;20041;-67
2022/08/01 04:18:23;;;;;;;7.97;5.63;;;21.20;99.90;;;;;;4064224;29;20103;-67
2022/08/01 04:20:23;;;;;;;8.75;6.63;;;21.20;99.90;;;;;;4054957;29;20052;-68
2022/08/01 04:22:24;;;;;;;10.82;6.70;;;21.20;99.90;;;;;;4076722;29;20028;-67
2022/08/01 04:24:28;;;;;;;8.18;6.32;;;21.20;99.90;;;;;;4059206;29;21140;-68
2022/08/01 04:26:34;;;;;;;7.75;5.55;;;21.10;99.90;;;;;;4052554;29;20048;-68
2022/08/01 04:28:36;;;;;;;7.75;6.20;;;21.10;99.90;;;;;;4048628;29;20511;-68
2022/08/01 04:30:39;;;;;;;8.20;6.03;;;21.10;99.90;;;;;;4051029;29;20033;-68
2022/08/01 04:32:44;;;;;;;7.57;6.03;;;21.10;99.90;;;;;;4050555;29;20044;-67
2022/08/01 04:34:49;;;;;;;8.90;6.30;;;21.10;99.90;;;;;;4047956;29;20029;-67
2022/08/01 04:36:52;;;;;;;7.78;6.32;;;21.10;99.90;;;;;;4049715;29;20124;-68
2022/08/01 04:38:59;;;;;;;7.40;5.45;;;21.10;99.90;;;;;;4046016;29;20059;-68
2022/08/01 04:41:02;;;;;;;9.25;6.80;;;21.10;99.90;;;;;;4046440;29;20040;-68
2022/08/01 04:43:03;;;;;;;9.27;6.82;;;21.20;99.90;;;;;;4062295;29;20040;-68
2022/08/01 04:45:04;;;;;;;7.60;5.65;;;21.10;99.90;;;;;;4051003;29;20028;-69
2022/08/01 04:47:07;;;;;;;7.40;5.53;;;21.10;99.90;;;;;;4049799;29;20128;-68
2022/08/01 04:49:11;;;;;;;11.15;6.65;;;21.10;99.90;;;;;;4048439;29;20376;-68
2022/08/01 04:51:16;;;;;;;11.02;6.75;;;21.20;99.90;;;;;;4046992;29;20079;-68
2022/08/01 04:53:18;;;;;;;11.55;6.35;;;21.10;99.90;;;;;;4047859;29;20036;-67
2022/08/01 04:55:19;;;;;;;9.15;6.82;;;21.10;99.90;;;;;;4047218;29;20041;-68
2022/08/01 04:57:20;;;;;;;11.35;7.35;;;21.10;99.90;;;;;;4048966;29;20036;-68
2022/08/01 04:59:39;;;;;;;10.95;7.57;;;21.00;99.90;;;;;;4048324;29;20032;-68
2022/08/01 05:01:39;;;;;;;10.85;7.25;;;21.00;99.90;;;;;;4052682;29;20399;-67
2022/08/01 05:03:40;;;;;;;9.15;6.18;;;21.00;99.90;;;;;;4049794;29;20024;-68
2022/08/01 05:05:40;;;;;;;7.45;5.35;;;21.00;99.90;;;;;;4046801;29;20044;-68
2022/08/01 05:07:41;;;;;;;7.75;5.70;;;21.00;99.90;;;;;;4048682;29;20491;-67
2022/08/01 05:09:42;;;;;;;7.80;5.80;;;21.00;99.90;;;;;;4048136;29;20547;-68
2022/08/01 05:11:43;;;;;;;9.60;7.03;;;21.00;99.90;;;;;;4049032;29;20087;-68
2022/08/01 05:13:43;;;;;;;7.63;6.00;;;21.00;99.90;;;;;;4048754;29;20041;-68
2022/08/01 05:15:44;;;;;;;8.77;6.38;;;21.00;99.90;;;;;;4046703;29;20037;-67
2022/08/01 05:17:45;;;;;;;10.45;7.57;;;20.90;99.90;;;;;;4048650;29;20044;-68
2022/08/01 05:19:47;;;;;;;12.48;7.43;;;20.90;99.90;;;;;;4075676;29;20171;-67
2022/08/01 05:21:47;;;;;;;8.45;6.80;;;20.80;99.90;;;;;;4065636;29;20444;-68
2022/08/01 05:23:48;;;;;;;8.25;6.10;;;20.80;99.90;;;;;;4063106;29;20048;-68
2022/08/01 05:25:49;;;;;;;11.20;7.97;;;20.80;99.90;;;;;;4056691;29;20080;-67
2022/08/01 05:27:50;;;;;;;11.10;6.93;;;20.80;99.90;;;;;;4044471;29;20053;-68
2022/08/01 05:29:50;;;;;;;11.10;7.53;;;20.80;99.90;;;;;;4050814;29;20036;-68
2022/08/01 05:31:52;;;;;;;7.90;6.18;;;20.90;99.90;;;;;;4063777;29;20025;-68
2022/08/01 05:33:52;;;;;;;7.43;5.53;;;20.80;99.90;;;;;;4060514;29;20245;-68
2022/08/01 05:35:53;;;;;;;8.88;6.47;;;20.90;99.90;;;;;;4046837;29;20432;-68
2022/08/01 05:37:53;;;;;;;10.70;6.47;;;20.90;99.90;;;;;;4046410;29;20483;-68
2022/08/01 05:39:54;;;;;;;6.97;5.30;;;20.90;99.90;;;;;;4045756;29;20036;-68
2022/08/01 05:41:55;;;;;;;8.02;5.68;;;20.90;99.90;;;;;;4049937;29;20033;-67
2022/08/01 05:43:56;;;;;;;9.85;6.40;;;20.90;99.90;;;;;;4048737;29;20197;-68
2022/08/01 05:45:58;;;;;;;7.30;4.80;;;21.00;99.90;;;;;;4047220;29;20044;-67
2022/08/01 05:47:58;;;;;;;8.55;5.10;;;21.00;99.90;;;;;;4064033;29;20478;-67
2022/08/01 05:49:59;;;;;;;7.93;4.90;;;21.00;99.90;;;;;;4048667;29;20032;-68
2022/08/01 05:52:01;;;;;;;5.57;4.55;;;21.10;99.90;;;;;;4046779;29;20202;-68
2022/08/01 05:54:02;;;;;;;7.68;5.35;;;21.10;99.90;;;;;;4057505;29;20028;-68
2022/08/01 05:56:03;;;;;;;5.95;4.25;;;21.10;99.90;;;;;;4048184;29;20061;-68
2022/08/01 05:58:03;;;;;;;4.03;3.63;;;21.10;99.90;;;;;;4047194;29;20025;-68
2022/08/01 06:00:05;;;;;;;4.90;4.10;;;21.20;99.90;;;;;;4045838;29;20132;-68
2022/08/01 06:02:06;;;;;;;5.95;4.95;;;21.20;99.90;;;;;;4047422;29;20338;-68
2022/08/01 06:04:07;;;;;;;6.05;4.65;;;21.20;99.90;;;;;;4047242;29;20061;-68
2022/08/01 06:06:07;;;;;;;7.30;5.53;;;21.30;99.90;;;;;;4050900;29;20032;-68
2022/08/01 06:08:08;;;;;;;7.50;4.22;;;21.30;99.90;;;;;;4048347;29;20036;-68
2022/08/01 06:10:09;;;;;;;5.72;4.60;;;21.30;99.90;;;;;;4048291;29;20412;-68
2022/08/01 06:12:09;;;;;;;4.45;3.50;;;21.40;99.90;;;;;;4049111;29;20057;-68
2022/08/01 06:14:10;;;;;;;4.35;3.28;;;21.40;99.90;;;;;;4046273;29;20040;-68
2022/08/01 06:16:11;;;;;;;5.78;3.53;;;21.40;99.90;;;;;;4048543;29;20031;-68
2022/08/01 06:18:12;;;;;;;8.82;5.45;;;21.50;99.90;;;;;;4049993;29;20039;-68
2022/08/01 06:20:13;;;;;;;5.70;4.22;;;21.50;99.90;;;;;;4048575;29;20033;-69
2022/08/01 06:22:14;;;;;;;6.55;4.47;;;21.60;99.90;;;;;;4050391;29;20045;-68
2022/08/01 06:24:14;;;;;;;5.07;4.25;;;21.70;99.90;;;;;;4049737;29;20032;-68
2022/08/01 06:26:18;;;;;;;4.28;3.47;;;21.70;99.90;;;;;;4047121;29;20052;-67
2022/08/01 06:28:18;;;;;;;5.75;4.03;;;21.80;99.90;;;;;;4049342;29;20036;-68
2022/08/01 06:30:19;;;;;;;5.43;4.03;;;21.90;99.90;;;;;;4043273;29;20041;-68
2022/08/01 06:32:24;;;;;;;6.95;5.40;;;21.90;99.90;;;;;;4046760;29;20139;-68
2022/08/01 06:34:25;;;;;;;6.97;4.20;;;22.10;99.90;;;;;;4049304;29;20495;-68
2022/08/01 06:36:25;;;;;;;5.10;3.70;;;22.20;99.90;;;;;;4047123;29;20068;-68
2022/08/01 06:38:26;;;;;;;5.50;4.40;;;22.30;99.90;;;;;;4046886;29;20039;-67
2022/08/01 06:40:26;;;;;;;5.35;3.83;;;22.50;99.90;;;;;;4043929;29;20040;-68
2022/08/01 06:42:27;;;;;;;4.57;3.55;;;22.60;99.90;;;;;;4047217;29;20043;-68
2022/08/01 06:44:27;;;;;;;6.05;4.20;;;22.70;99.90;;;;;;4048461;29;20080;-68
2022/08/01 06:46:29;;;;;;;6.60;4.45;;;22.70;99.90;;;;;;4048554;29;21110;-67
2022/08/01 06:48:30;;;;;;;5.97;4.35;;;22.70;99.90;;;;;;4049252;29;20039;-68
2022/08/01 06:50:30;;;;;;;6.82;4.65;;;22.80;99.90;;;;;;4044032;29;20044;-68
2022/08/01 06:52:31;;;;;;;6.40;4.40;;;22.70;99.90;;;;;;4048076;29;20052;-68
2022/08/01 06:54:31;;;;;;;4.93;3.85;;;22.70;99.90;;;;;;4067025;29;20036;-68
2022/08/01 06:56:34;;;;;;;5.72;3.42;;;22.70;99.90;;;;;;4061959;29;20021;-68
2022/08/01 06:58:35;;;;;;;5.07;3.88;;;22.60;99.90;;;;;;4059728;29;20032;-68
2022/08/01 07:00:36;;;;;;;6.10;4.18;;;22.60;99.90;;;;;;4059789;29;20032;-68
2022/08/01 07:02:36;;;;;;;5.53;3.92;;;22.50;99.90;;;;;;4065036;29;20043;-68
2022/08/01 07:04:37;;;;;;;4.10;3.47;;;22.50;99.90;;;;;;4065168;29;20031;-68
2022/08/01 07:06:37;;;;;;;4.70;3.67;;;22.60;99.90;;;;;;4063216;29;20047;-68
2022/08/01 07:08:38;;;;;;;3.83;3.00;;;22.70;99.90;;;;;;4064519;29;20043;-68
2022/08/01 07:10:38;;;;;;;3.90;2.83;;;22.70;99.90;;;;;;4063842;29;20040;-68
2022/08/01 07:12:40;;;;;;;5.35;3.30;;;22.80;99.90;;;;;;4055332;29;20501;-68
2022/08/01 07:14:41;;;;;;;5.38;3.50;;;22.90;99.90;;;;;;4049746;29;20032;-69
2022/08/01 07:16:41;;;;;;;4.85;3.20;;;22.90;99.90;;;;;;4045023;29;20107;-68
2022/08/01 07:18:43;;;;;;;4.72;3.47;;;22.90;99.90;;;;;;4047881;29;20040;-68
2022/08/01 07:20:45;;;;;;;5.43;4.45;;;23.00;99.90;;;;;;4046919;29;20115;-68
2022/08/01 07:22:46;;;;;;;9.05;5.45;;;23.00;99.90;;;;;;4053100;29;20056;-68
2022/08/01 07:24:46;;;;;;;7.10;4.97;;;23.00;99.90;;;;;;4052998;29;20483;-68
2022/08/01 07:26:48;;;;;;;8.00;5.53;;;22.80;99.90;;;;;;4050691;29;20495;-68
2022/08/01 07:28:49;;;;;;;6.70;4.95;;;22.80;99.90;;;;;;4045215;29;20036;-68
2022/08/01 07:30:49;;;;;;;6.75;4.07;;;22.70;99.90;;;;;;4043917;29;20088;-68
2022/08/01 07:32:50;;;;;;;6.72;4.53;;;22.70;99.90;;;;;;4045989;29;20047;-68
2022/08/01 07:34:51;;;;;;;6.18;4.50;;;22.70;99.90;;;;;;4045271;29;20270;-68
2022/08/01 07:36:52;;;;;;;6.10;4.30;;;22.70;99.90;;;;;;4046398;29;20072;-68
2022/08/01 07:38:53;;;;;;;7.65;4.53;;;22.70;99.90;;;;;;4045287;29;20463;-68
2022/08/01 07:40:54;;;;;;;7.10;5.10;;;22.60;99.90;;;;;;4043957;29;20051;-68
2022/08/01 07:42:55;;;;;;;6.30;4.50;;;22.60;99.90;;;;;;4043132;29;20404;-68
2022/08/01 07:44:55;;;;;;;5.55;4.30;;;22.60;99.90;;;;;;4045555;29;20840;-68
2022/08/01 07:46:56;;;;;;;6.93;4.85;;;22.50;99.90;;;;;;4045307;29;20048;-68
2022/08/01 07:48:57;;;;;;;5.93;3.83;;;22.50;99.90;;;;;;4043849;29;20041;-68
2022/08/01 07:50:57;;;;;;;6.30;4.32;;;22.60;99.90;;;;;;4044476;29;20048;-68
2022/08/01 07:52:59;;;;;;;5.10;3.70;;;22.60;99.90;;;;;;4046522;29;20124;-68
2022/08/01 07:55:00;;;;;;;4.53;3.08;;;22.70;99.90;;;;;;4045189;29;20047;-68
2022/08/01 07:57:02;;;;;;;4.57;2.63;;;22.80;99.90;;;;;;4043965;29;20419;-68
2022/08/01 07:59:03;;;;;;;3.35;2.53;;;22.90;99.90;;;;;;4043821;29;20053;-69
2022/08/01 08:01:03;;;;;;;2.95;2.53;;;23.00;99.90;;;;;;4042904;29;20045;-68
2022/08/01 08:03:04;;;;;;;2.97;2.20;;;23.00;99.90;;;;;;4046513;29;20033;-68
2022/08/01 08:05:06;;;;;;;2.63;2.05;;;23.10;99.90;;;;;;4046470;29;20059;-70
2022/08/01 08:07:07;;;;;;;3.08;2.15;;;23.10;99.90;;;;;;4045205;29;20036;-69
2022/08/01 08:09:07;;;;;;;2.75;2.00;;;23.20;99.90;;;;;;4048665;29;20039;-70
2022/08/01 08:11:08;;;;;;;2.78;2.33;;;23.30;99.90;;;;;;4045115;29;20092;-69
2022/08/01 08:13:08;;;;;;;4.00;2.65;;;23.40;99.90;;;;;;4046134;29;20053;-69
2022/08/01 08:15:09;;;;;;;3.72;2.40;;;23.40;99.90;;;;;;4046000;29;20032;-70
2022/08/01 08:17:10;;;;;;;2.88;2.35;;;23.50;99.90;;;;;;4045749;29;20044;-69
2022/08/01 08:19:11;;;;;;;2.13;1.70;;;23.50;99.90;;;;;;4049330;29;20036;-69
2022/08/01 08:21:11;;;;;;;2.95;1.83;;;23.50;99.90;;;;;;4047400;29;20032;-70
2022/08/01 08:25:33;;;;;;;2.13;1.50;;;23.60;99.90;;;;;;4047691;29;20103;-69
2022/08/01 08:27:35;;;;;;;2.17;1.58;;;23.60;99.90;;;;;;4046895;29;20040;-69
2022/08/01 08:29:36;;;;;;;2.22;2.03;;;23.70;99.90;;;;;;4043969;29;20059;-70
2022/08/01 08:31:36;;;;;;;4.80;2.28;;;23.70;99.90;;;;;;4047550;29;20047;-70
2022/08/01 08:33:37;;;;;;;3.92;2.72;;;23.80;99.90;;;;;;4046539;29;20071;-70
2022/08/01 08:35:40;;;;;;;4.22;2.55;;;23.90;99.90;;;;;;4044644;29;20040;-69
2022/08/01 08:37:40;;;;;;;6.00;2.35;;;23.90;99.90;;;;;;4044829;29;20033;-70
2022/08/01 08:39:41;;;;;;;3.33;2.10;;;23.90;99.90;;;;;;4059857;29;20055;-70
2022/08/01 08:41:43;;;;;;;4.32;1.73;;;23.90;99.90;;;;;;4060141;29;20044;-70
2022/08/01 08:43:44;;;;;;;2.38;1.85;;;23.90;99.90;;;;;;4059104;29;20395;-70
2022/08/01 08:45:45;;;;;;;2.30;1.83;;;23.90;99.90;;;;;;4060715;29;20043;-69
2022/08/01 08:47:48;;;;;;;;;;;23.90;99.90;;;;;;4062640;29;20052;-69
2022/08/01 08:49:52;;;;;;;2.08;1.88;;;23.90;99.90;;;;;;4060167;29;19919;-70
2022/08/01 08:51:57;;;;;;;2.45;1.98;;;23.90;99.90;;;;;;4061113;29;20049;-69
2022/08/01 08:54:00;;;;;;;1.35;1.25;;;23.90;99.90;;;;;;4061194;29;20044;-69
2022/08/01 08:56:00;;;;;;;;;;;24.00;99.90;;;;;;4062051;29;20051;-68
2022/08/01 08:58:05;;;;;;;1.90;1.63;;;24.00;99.90;;;;;;4060834;29;19919;-70
2022/08/01 09:00:07;;;;;;;1.77;1.40;;;24.10;99.90;;;;;;4060382;29;20088;-70
2022/08/01 09:02:09;;;;;;;2.43;2.00;;;24.10;99.90;;;;;;4076469;29;20086;-69
2022/08/01 09:04:11;;;;;;;2.95;1.90;;;24.20;99.90;;;;;;4059937;29;20042;-69
2022/08/01 09:06:11;;;;;;;2.27;1.70;;;24.30;99.90;;;;;;4061844;29;20377;-70
2022/08/01 09:08:12;;;;;;;2.05;1.67;;;24.30;99.90;;;;;;4052396;29;20120;-69
2022/08/01 09:10:13;;;;;;;3.53;1.90;;;24.40;99.90;;;;;;4044796;29;20033;-70
2022/08/01 09:12:17;;;;;;;2.88;2.58;;;24.50;99.90;;;;;;4046406;29;20587;-69
2022/08/01 09:14:23;;;;;;;2.20;2.00;;;24.60;99.90;;;;;;4045023;29;20444;-70
2022/08/01 09:16:24;;;;;;;2.10;1.80;;;24.70;99.90;;;;;;4045879;29;20088;-70
2022/08/01 09:18:36;;;;;;;2.25;2.00;;;24.70;99.90;;;;;;4045981;29;20130;-70
2022/08/01 09:20:36;;;;;;;2.10;1.90;;;24.80;99.90;;;;;;4045931;29;20036;-70
2022/08/01 09:22:38;;;;;;;2.05;1.85;;;24.90;99.90;;;;;;4047070;29;20568;-69
2022/08/01 09:24:40;;;;;;;2.08;1.88;;;24.90;99.90;;;;;;4059759;29;20075;-69
2022/08/01 09:26:41;;;;;;;1.80;1.70;;;24.90;99.90;;;;;;4046060;29;20073;-70
2022/08/01 09:28:42;;;;;;;2.08;1.88;;;24.90;99.90;;;;;;4043609;29;20033;-70
2022/08/01 09:30:43;;;;;;;1.77;1.60;;;25.00;99.90;;;;;;4044291;29;20449;-68
2022/08/01 09:33:02;;;;;;;1.90;1.80;;;25.10;99.90;;;;;;4046659;29;20040;-69
2022/08/01 09:35:23;;;;;;;1.83;1.50;;;25.10;99.90;;;;;;4047558;29;20043;-70
2022/08/01 09:37:30;;;;;;;1.67;1.48;;;25.20;99.90;;;;;;4047755;29;20377;-71
2022/08/01 09:39:33;;;;;;;4.82;2.13;;;25.30;99.90;;;;;;4046323;29;20056;-70
2022/08/01 09:41:34;;;;;;;1.83;1.40;;;25.30;99.90;;;;;;4048644;29;20145;-69
2022/08/01 09:43:34;;;;;;;1.55;1.45;;;25.40;99.90;;;;;;4049249;29;20048;-70
2022/08/01 09:45:35;;;;;;;1.30;1.20;;;25.40;99.90;;;;;;4047423;29;20551;-71
2022/08/01 09:47:39;;;;;;;1.23;1.13;;;25.40;99.90;;;;;;4048173;29;20048;-70
2022/08/01 09:49:41;;;;;;;1.50;1.10;;;25.50;99.90;;;;;;4048014;29;20040;-70
2022/08/01 09:51:41;;;;;;;1.42;1.23;;;25.50;99.90;;;;;;4048292;29;20037;-70
2022/08/01 09:53:47;;;;;;;1.50;1.35;;;25.50;99.90;;;;;;4048800;29;20029;-70
2022/08/01 09:55:52;;;;;;;1.30;1.20;;;25.50;99.90;;;;;;4048086;29;20044;-70
2022/08/01 09:57:56;;;;;;;1.50;1.25;;;25.40;99.90;;;;;;4045333;29;20091;-70
2022/08/01 09:59:58;;;;;;;1.45;1.30;;;25.40;99.90;;;;;;4046526;29;20127;-70
2022/08/01 10:01:59;;;;;;;1.40;1.05;;;25.40;99.90;;;;;;4048260;29;20036;-70
2022/08/01 10:04:18;;;;;;;1.30;1.20;;;25.40;99.90;;;;;;4049447;29;20047;-70
2022/08/01 10:06:21;;;;;;;1.08;1.05;;;25.40;99.90;;;;;;4046000;29;20032;-70
2022/08/01 10:08:24;;;;;;;1.10;1.00;;;25.50;99.90;;;;;;4049231;29;20550;-70
2022/08/01 10:10:26;;;;;;;1.52;1.42;;;25.60;99.90;;;;;;4047810;29;20041;-70
2022/08/01 10:12:27;;;;;;;1.43;1.33;;;25.60;99.90;;;;;;4049443;29;20154;-69
2022/08/01 10:14:29;;;;;;;1.40;1.30;;;25.70;99.90;;;;;;4048669;29;20081;-70
2022/08/01 10:16:31;;;;;;;1.40;1.30;;;25.70;99.90;;;;;;4048430;29;20380;-70
2022/08/01 10:48:04;;;;;;;0.70;0.70;;;25.40;99.90;;;;;;4024869;29;20327;-71
2022/08/01 10:50:23;;;;;;;0.75;0.68;;;25.30;99.90;;;;;;4055041;29;20803;-71
2022/08/01 10:52:23;;;;;;;0.60;0.60;;;25.30;99.90;;;;;;4047460;29;20107;-70
2022/08/01 10:54:25;;;;;;;1.40;0.90;;;25.30;99.90;;;;;;4048796;29;20044;-70
2022/08/01 10:56:39;;;;;;;0.60;0.60;;;25.30;99.90;;;;;;4047287;29;20192;-71
2022/08/01 10:58:42;;;;;;;0.63;0.63;;;25.40;99.90;;;;;;4050594;29;20399;-71
2022/08/01 11:00:44;;;;;;;1.00;0.82;;;25.40;99.90;;;;;;4043981;29;20055;-71
2022/08/01 11:03:02;;;;;;;0.77;0.77;;;25.50;99.90;;;;;;4044135;29;20032;-71
2022/08/01 11:05:21;;;;;;;0.90;0.85;;;25.50;99.90;;;;;;4045353;29;20517;-70
2022/08/01 11:07:34;;;;;;;0.70;0.60;;;25.50;99.90;;;;;;4047648;29;20052;-71
2022/08/01 11:09:47;;;;;;;0.70;0.70;;;25.50;99.90;;;;;;4047568;29;20040;-70
2022/08/01 11:12:03;;;;;;;1.70;0.60;;;25.40;99.90;;;;;;4043067;29;20044;-71
2022/08/01 11:14:12;;;;;;;0.80;0.60;;;25.40;99.90;;;;;;4061090;29;20047;-71
2022/08/01 11:16:28;;;;;;;1.30;0.40;;;25.40;99.90;;;;;;4045426;29;20044;-70